createdAt,value
2019-03-19T00:00:38.191Z,1014.89
2019-03-19T00:01:38.181Z,1014.89
2019-03-19T00:02:38.183Z,1014.95
2019-03-19T00:03:38.157Z,1015.01
2019-03-19T00:04:38.148Z,1015.02
2019-03-19T00:05:38.141Z,1015.00
2019-03-19T00:06:38.125Z,1014.93
2019-03-19T00:07:38.132Z,1015.02
2019-03-19T00:08:38.108Z,1015.04
2019-03-19T00:09:38.098Z,1015.02
2019-03-19T00:10:38.087Z,1015.02
2019-03-19T00:11:38.075Z,1014.93
2019-03-19T00:12:38.082Z,1014.98
2019-03-19T00:13:38.053Z,1015.00
2019-03-19T00:14:38.053Z,1015.00
2019-03-19T00:15:38.035Z,1014.96
2019-03-19T00:16:38.039Z,1014.93
2019-03-19T00:17:38.034Z,1014.97
2019-03-19T00:18:37.998Z,1014.97
2019-03-19T00:19:37.997Z,1014.99
2019-03-19T00:20:37.989Z,1014.97
2019-03-19T00:21:37.979Z,1014.96
2019-03-19T00:22:37.976Z,1014.94
2019-03-19T00:23:37.955Z,1014.94
2019-03-19T00:24:37.941Z,1014.91
2019-03-19T00:25:37.930Z,1014.94
2019-03-19T00:26:37.918Z,1015.00
2019-03-19T00:27:37.923Z,1015.02
2019-03-19T00:28:39.052Z,1014.98
2019-03-19T00:29:37.887Z,1015.01
2019-03-19T00:30:37.871Z,1015.03
2019-03-19T00:31:37.863Z,1015.04
2019-03-19T00:32:37.870Z,1015.02
2019-03-19T00:33:37.844Z,1015.06
2019-03-19T00:34:37.832Z,1015.00
2019-03-19T00:35:37.820Z,1015.09
2019-03-19T00:36:37.814Z,1015.11
2019-03-19T00:37:37.811Z,1015.14
2019-03-19T00:38:37.786Z,1015.09
2019-03-19T00:39:37.775Z,1015.12
2019-03-19T00:40:37.762Z,1015.10
2019-03-19T00:41:37.758Z,1015.12
2019-03-19T00:42:37.760Z,1015.04
2019-03-19T00:43:37.751Z,1015.08
2019-03-19T00:44:37.725Z,1015.06
2019-03-19T00:45:37.714Z,1015.10
2019-03-19T00:46:37.703Z,1015.13
2019-03-19T00:47:37.705Z,1015.13
2019-03-19T00:48:37.687Z,1015.11
2019-03-19T00:49:37.668Z,1015.13
2019-03-19T00:50:37.656Z,1015.04
2019-03-19T00:51:37.646Z,1015.12
2019-03-19T00:52:37.660Z,1015.12
2019-03-19T00:53:37.631Z,1015.15
2019-03-19T00:54:37.620Z,1015.09
2019-03-19T00:55:40.906Z,1015.08
2019-03-19T00:56:37.597Z,1015.09
2019-03-19T00:57:37.598Z,1015.06
2019-03-19T00:58:37.576Z,1015.04
2019-03-19T00:59:37.564Z,1015.07
2019-03-19T01:00:37.555Z,1015.04
2019-03-19T01:01:38.821Z,1015.04
2019-03-19T01:02:37.546Z,1015.02
2019-03-19T01:03:37.520Z,1015.04
2019-03-19T01:04:37.509Z,1015.04
2019-03-19T01:05:37.505Z,1015.03
2019-03-19T01:06:37.492Z,1014.99
2019-03-19T01:07:37.498Z,1015.07
2019-03-19T01:08:37.466Z,1015.04
2019-03-19T01:09:37.461Z,1015.06
2019-03-19T01:10:37.447Z,1015.05
2019-03-19T01:11:37.434Z,1015.07
2019-03-19T01:12:37.441Z,1015.13
2019-03-19T01:13:37.434Z,1015.10
2019-03-19T01:14:37.407Z,1015.13
2019-03-19T01:15:37.393Z,1015.09
2019-03-19T01:16:37.385Z,1015.16
2019-03-19T01:17:37.393Z,1015.15
2019-03-19T01:18:37.366Z,1015.18
2019-03-19T01:19:37.364Z,1015.20
2019-03-19T01:20:37.359Z,1015.16
2019-03-19T01:21:37.330Z,1015.17
2019-03-19T01:22:37.336Z,1015.18
2019-03-19T01:23:37.308Z,1015.18
2019-03-19T01:24:37.306Z,1015.25
2019-03-19T01:25:37.293Z,1015.20
2019-03-19T01:26:37.276Z,1015.18
2019-03-19T01:27:37.278Z,1015.24
2019-03-19T01:28:37.253Z,1015.25
2019-03-19T01:29:37.245Z,1015.25
2019-03-19T01:30:37.234Z,1015.33
2019-03-19T01:31:37.229Z,1015.29
2019-03-19T01:32:37.234Z,1015.35
2019-03-19T01:33:37.203Z,1015.30
2019-03-19T01:34:37.190Z,1015.27
2019-03-19T01:35:37.181Z,1015.28
2019-03-19T01:36:37.171Z,1015.30
2019-03-19T01:37:37.175Z,1015.34
2019-03-19T01:38:37.154Z,1015.34
2019-03-19T01:39:37.142Z,1015.36
2019-03-19T01:40:37.132Z,1015.33
2019-03-19T01:41:37.130Z,1015.36
2019-03-19T01:42:37.122Z,1015.40
2019-03-19T01:43:37.096Z,1015.44
2019-03-19T01:44:37.088Z,1015.40
2019-03-19T01:45:37.073Z,1015.48
2019-03-19T01:46:37.073Z,1015.51
2019-03-19T01:47:37.086Z,1015.52
2019-03-19T01:48:37.046Z,1015.52
2019-03-19T01:49:37.032Z,1015.52
2019-03-19T01:50:37.024Z,1015.52
2019-03-19T01:51:37.048Z,1015.57
2019-03-19T01:52:37.015Z,1015.47
2019-03-19T01:53:36.994Z,1015.46
2019-03-19T01:54:36.984Z,1015.47
2019-03-19T01:55:36.971Z,1015.51
2019-03-19T01:56:36.964Z,1015.53
2019-03-19T01:57:36.986Z,1015.54
2019-03-19T01:58:36.946Z,1015.54
2019-03-19T01:59:36.979Z,1015.58
2019-03-19T02:00:36.920Z,1015.57
2019-03-19T02:01:36.910Z,1015.58
2019-03-19T02:02:36.898Z,1015.58
2019-03-19T02:03:36.902Z,1015.59
2019-03-19T02:04:36.880Z,1015.57
2019-03-19T02:05:36.910Z,1015.62
2019-03-19T02:06:36.856Z,1015.58
2019-03-19T02:07:36.848Z,1015.68
2019-03-19T02:08:36.851Z,1015.58
2019-03-19T02:09:36.830Z,1015.63
2019-03-19T02:10:36.811Z,1015.65
2019-03-19T02:11:38.428Z,1015.66
2019-03-19T02:12:36.804Z,1015.64
2019-03-19T02:13:36.807Z,1015.63
2019-03-19T02:14:36.772Z,1015.67
2019-03-19T02:15:36.765Z,1015.71
2019-03-19T02:16:36.754Z,1015.75
2019-03-19T02:17:36.760Z,1015.80
2019-03-19T02:18:36.746Z,1015.72
2019-03-19T02:19:36.745Z,1015.74
2019-03-19T02:20:36.720Z,1015.78
2019-03-19T02:21:36.698Z,1015.82
2019-03-19T02:22:36.691Z,1015.81
2019-03-19T02:23:36.704Z,1015.80
2019-03-19T02:24:36.667Z,1015.81
2019-03-19T02:25:36.659Z,1015.81
2019-03-19T02:26:36.649Z,1015.87
2019-03-19T02:27:36.642Z,1015.88
2019-03-19T02:28:36.642Z,1015.95
2019-03-19T02:29:36.615Z,1015.93
2019-03-19T02:30:36.659Z,1015.96
2019-03-19T02:31:36.596Z,1015.98
2019-03-19T02:32:36.583Z,1015.98
2019-03-19T02:33:36.588Z,1016.01
2019-03-19T02:34:36.564Z,1015.99
2019-03-19T02:35:36.559Z,1016.08
2019-03-19T02:36:36.542Z,1016.07
2019-03-19T02:37:36.528Z,1016.05
2019-03-19T02:38:36.537Z,1016.09
2019-03-19T02:39:36.512Z,1016.09
2019-03-19T02:40:36.506Z,1016.05
2019-03-19T02:41:36.490Z,1016.11
2019-03-19T02:42:36.475Z,1016.14
2019-03-19T02:43:36.482Z,1016.18
2019-03-19T02:44:36.464Z,1016.16
2019-03-19T02:45:36.447Z,1016.21
2019-03-19T02:46:36.438Z,1016.20
2019-03-19T02:47:36.432Z,1016.18
2019-03-19T02:48:36.437Z,1016.20
2019-03-19T02:49:36.402Z,1016.18
2019-03-19T02:50:36.395Z,1016.17
2019-03-19T02:51:36.386Z,1016.14
2019-03-19T02:52:36.373Z,1016.20
2019-03-19T02:53:36.372Z,1016.16
2019-03-19T02:54:36.359Z,1016.18
2019-03-19T02:55:36.359Z,1016.21
2019-03-19T02:56:36.333Z,1016.11
2019-03-19T02:57:36.337Z,1016.17
2019-03-19T02:58:36.326Z,1016.16
2019-03-19T02:59:36.299Z,1016.16
2019-03-19T03:00:36.284Z,1016.16
2019-03-19T03:01:36.284Z,1016.19
2019-03-19T03:02:36.263Z,1016.20
2019-03-19T03:03:36.274Z,1016.21
2019-03-19T03:04:36.251Z,1016.17
2019-03-19T03:05:36.235Z,1016.23
2019-03-19T03:06:36.228Z,1016.22
2019-03-19T03:07:36.211Z,1016.29
2019-03-19T03:08:36.217Z,1016.27
2019-03-19T03:09:36.189Z,1016.28
2019-03-19T03:10:36.180Z,1016.30
2019-03-19T03:11:36.170Z,1016.28
2019-03-19T03:12:36.160Z,1016.27
2019-03-19T03:13:36.171Z,1016.26
2019-03-19T03:14:36.143Z,1016.26
2019-03-19T03:15:36.130Z,1016.35
2019-03-19T03:16:36.117Z,1016.36
2019-03-19T03:17:36.112Z,1016.33
2019-03-19T03:18:36.108Z,1016.37
2019-03-19T03:19:36.086Z,1016.35
2019-03-19T03:20:36.080Z,1016.38
2019-03-19T03:21:36.059Z,1016.39
2019-03-19T03:22:36.051Z,1016.38
2019-03-19T03:23:36.057Z,1016.37
2019-03-19T03:24:36.033Z,1016.36
2019-03-19T03:25:36.029Z,1016.37
2019-03-19T03:26:46.771Z,1016.38
2019-03-19T03:27:37.007Z,1016.35
2019-03-19T03:28:36.002Z,1016.35
2019-03-19T03:29:35.981Z,1016.42
2019-03-19T03:30:35.979Z,1016.41
2019-03-19T03:31:35.957Z,1016.43
2019-03-19T03:32:35.992Z,1016.46
2019-03-19T03:33:35.951Z,1016.39
2019-03-19T03:34:35.943Z,1016.43
2019-03-19T03:35:35.930Z,1016.45
2019-03-19T03:36:35.913Z,1016.56
2019-03-19T03:37:35.901Z,1016.49
2019-03-19T03:38:35.900Z,1016.47
2019-03-19T03:39:35.875Z,1016.41
2019-03-19T03:40:35.861Z,1016.47
2019-03-19T03:41:35.858Z,1016.44
2019-03-19T03:42:35.920Z,1016.48
2019-03-19T03:43:35.855Z,1016.47
2019-03-19T03:44:35.822Z,1016.45
2019-03-19T03:45:35.825Z,1016.47
2019-03-19T03:46:35.802Z,1016.49
2019-03-19T03:47:35.791Z,1016.47
2019-03-19T03:48:35.796Z,1016.45
2019-03-19T03:49:35.771Z,1016.51
2019-03-19T03:50:35.835Z,1016.48
2019-03-19T03:51:35.757Z,1016.53
2019-03-19T03:52:35.734Z,1016.54
2019-03-19T03:53:35.739Z,1016.56
2019-03-19T03:54:35.722Z,1016.58
2019-03-19T03:55:35.708Z,1016.57
2019-03-19T03:56:35.698Z,1016.59
2019-03-19T03:57:35.685Z,1016.62
2019-03-19T03:58:35.703Z,1016.64
2019-03-19T03:59:35.663Z,1016.67
2019-03-19T04:00:35.657Z,1016.68
2019-03-19T04:01:35.651Z,1016.70
2019-03-19T04:02:35.637Z,1016.67
2019-03-19T04:03:35.634Z,1016.68
2019-03-19T04:04:35.613Z,1016.67
2019-03-19T04:05:35.608Z,1016.75
2019-03-19T04:06:35.595Z,1016.71
2019-03-19T04:07:35.593Z,1016.69
2019-03-19T04:08:35.597Z,1016.75
2019-03-19T04:09:35.556Z,1016.72
2019-03-19T04:10:35.553Z,1016.72
2019-03-19T04:11:35.546Z,1016.75
2019-03-19T04:12:35.536Z,1016.82
2019-03-19T04:13:35.541Z,1016.78
2019-03-19T04:14:35.511Z,1016.84
2019-03-19T04:15:35.502Z,1016.81
2019-03-19T04:16:35.496Z,1016.82
2019-03-19T04:17:35.476Z,1016.85
2019-03-19T04:18:35.477Z,1016.84
2019-03-19T04:19:35.454Z,1016.81
2019-03-19T04:20:35.442Z,1016.80
2019-03-19T04:21:35.453Z,1016.85
2019-03-19T04:22:35.423Z,1016.89
2019-03-19T04:23:35.434Z,1016.92
2019-03-19T04:24:35.406Z,1016.91
2019-03-19T04:25:35.389Z,1017.03
2019-03-19T04:26:35.390Z,1017.04
2019-03-19T04:27:35.367Z,1017.07
2019-03-19T04:28:35.377Z,1017.01
2019-03-19T04:29:35.352Z,1017.07
2019-03-19T04:30:35.341Z,1017.13
2019-03-19T04:31:35.324Z,1017.10
2019-03-19T04:32:35.321Z,1017.11
2019-03-19T04:33:35.328Z,1017.10
2019-03-19T04:34:35.297Z,1017.11
2019-03-19T04:35:35.293Z,1017.15
2019-03-19T04:36:35.278Z,1017.09
2019-03-19T04:37:35.265Z,1017.21
2019-03-19T04:38:35.268Z,1017.13
2019-03-19T04:39:35.249Z,1017.21
2019-03-19T04:40:35.234Z,1017.18
2019-03-19T04:41:35.231Z,1017.25
2019-03-19T04:42:35.218Z,1017.23
2019-03-19T04:43:35.211Z,1017.26
2019-03-19T04:44:35.192Z,1017.30
2019-03-19T04:45:35.180Z,1017.28
2019-03-19T04:46:35.173Z,1017.27
2019-03-19T04:47:35.158Z,1017.30
2019-03-19T04:48:35.179Z,1017.31
2019-03-19T04:49:35.145Z,1017.37
2019-03-19T04:50:35.125Z,1017.39
2019-03-19T04:51:35.126Z,1017.34
2019-03-19T04:52:35.104Z,1017.40
2019-03-19T04:53:35.099Z,1017.37
2019-03-19T04:54:35.098Z,1017.39
2019-03-19T04:55:35.078Z,1017.37
2019-03-19T04:56:35.060Z,1017.41
2019-03-19T04:57:35.056Z,1017.44
2019-03-19T04:58:35.042Z,1017.41
2019-03-19T04:59:35.048Z,1017.46
2019-03-19T05:00:35.030Z,1017.45
2019-03-19T05:01:35.019Z,1017.41
2019-03-19T05:02:35.005Z,1017.43
2019-03-19T05:03:34.995Z,1017.44
2019-03-19T05:04:35.008Z,1017.45
2019-03-19T05:05:34.970Z,1017.50
2019-03-19T05:06:34.958Z,1017.47
2019-03-19T05:07:34.948Z,1017.51
2019-03-19T05:08:34.942Z,1017.56
2019-03-19T05:09:34.947Z,1017.58
2019-03-19T05:10:34.970Z,1017.61
2019-03-19T05:11:34.916Z,1017.60
2019-03-19T05:12:34.900Z,1017.61
2019-03-19T05:13:34.888Z,1017.63
2019-03-19T05:14:34.886Z,1017.64
2019-03-19T05:15:34.870Z,1017.65
2019-03-19T05:16:34.858Z,1017.71
2019-03-19T05:17:34.842Z,1017.71
2019-03-19T05:18:34.841Z,1017.77
2019-03-19T05:19:34.839Z,1017.69
2019-03-19T05:20:34.812Z,1017.74
2019-03-19T05:21:34.804Z,1017.76
2019-03-19T05:22:34.794Z,1017.73
2019-03-19T05:23:34.791Z,1017.80
2019-03-19T05:24:34.788Z,1017.80
2019-03-19T05:25:34.764Z,1017.82
2019-03-19T05:26:34.750Z,1017.83
2019-03-19T05:27:37.628Z,1017.86
2019-03-19T05:28:34.766Z,1017.86
2019-03-19T05:29:34.732Z,1017.92
2019-03-19T05:30:34.715Z,1017.88
2019-03-19T05:31:34.702Z,1017.95
2019-03-19T05:32:34.692Z,1017.91
2019-03-19T05:33:34.685Z,1017.92
2019-03-19T05:34:34.687Z,1018.00
2019-03-19T05:35:34.661Z,1018.01
2019-03-19T05:36:34.642Z,1017.97
2019-03-19T05:37:34.640Z,1018.01
2019-03-19T05:38:34.636Z,1018.05
2019-03-19T05:39:34.634Z,1018.08
2019-03-19T05:40:34.605Z,1018.10
2019-03-19T05:41:34.592Z,1018.09
2019-03-19T05:42:34.584Z,1018.13
2019-03-19T05:43:34.568Z,1018.10
2019-03-19T05:44:34.584Z,1018.09
2019-03-19T05:45:34.550Z,1018.16
2019-03-19T05:46:34.542Z,1018.16
2019-03-19T05:47:37.514Z,1018.13
2019-03-19T05:48:35.516Z,1018.13
2019-03-19T05:49:34.528Z,1018.20
2019-03-19T05:50:34.506Z,1018.17
2019-03-19T05:51:34.490Z,1018.20
2019-03-19T05:52:34.484Z,1018.28
2019-03-19T05:53:34.469Z,1018.26
2019-03-19T05:54:34.473Z,1018.32
2019-03-19T05:55:34.450Z,1018.30
2019-03-19T05:56:34.440Z,1018.29
2019-03-19T05:57:34.424Z,1018.30
2019-03-19T05:58:34.414Z,1018.34
2019-03-19T05:59:34.422Z,1018.31
2019-03-19T06:00:34.396Z,1018.34
2019-03-19T06:01:34.384Z,1018.32
2019-03-19T06:02:34.377Z,1018.34
2019-03-19T06:03:34.402Z,1018.38
2019-03-19T06:04:34.370Z,1018.38
2019-03-19T06:05:34.346Z,1018.43
2019-03-19T06:06:34.330Z,1018.41
2019-03-19T06:07:34.322Z,1018.40
2019-03-19T06:08:34.310Z,1018.38
2019-03-19T06:09:34.314Z,1018.41
2019-03-19T06:10:34.289Z,1018.37
2019-03-19T06:11:34.282Z,1018.40
2019-03-19T06:12:34.270Z,1018.45
2019-03-19T06:13:34.264Z,1018.49
2019-03-19T06:14:34.274Z,1018.52
2019-03-19T06:15:34.237Z,1018.56
2019-03-19T06:16:34.234Z,1018.51
2019-03-19T06:17:34.216Z,1018.56
2019-03-19T06:18:35.395Z,1018.53
2019-03-19T06:19:34.216Z,1018.52
2019-03-19T06:20:34.186Z,1018.56
2019-03-19T06:21:34.172Z,1018.57
2019-03-19T06:22:34.160Z,1018.61
2019-03-19T06:23:34.150Z,1018.59
2019-03-19T06:24:34.156Z,1018.60
2019-03-19T06:25:34.133Z,1018.63
2019-03-19T06:26:34.122Z,1018.60
2019-03-19T06:27:34.109Z,1018.64
2019-03-19T06:28:35.630Z,1018.60
2019-03-19T06:29:34.109Z,1018.69
2019-03-19T06:30:34.077Z,1018.67
2019-03-19T06:31:34.064Z,1018.69
2019-03-19T06:32:34.064Z,1018.69
2019-03-19T06:33:34.052Z,1018.65
2019-03-19T06:34:34.155Z,1018.66
2019-03-19T06:35:34.039Z,1018.70
2019-03-19T06:36:34.019Z,1018.78
2019-03-19T06:37:34.006Z,1018.76
2019-03-19T06:38:33.995Z,1018.79
2019-03-19T06:39:33.997Z,1018.79
2019-03-19T06:40:33.974Z,1018.76
2019-03-19T06:41:33.964Z,1018.80
2019-03-19T06:42:33.947Z,1018.84
2019-03-19T06:43:33.943Z,1018.84
2019-03-19T06:44:33.968Z,1018.88
2019-03-19T06:45:33.918Z,1018.84
2019-03-19T06:46:33.926Z,1018.89
2019-03-19T06:47:33.896Z,1018.85
2019-03-19T06:48:33.891Z,1018.83
2019-03-19T06:49:33.904Z,1018.86
2019-03-19T06:50:44.403Z,1018.84
2019-03-19T06:51:34.862Z,1018.82
2019-03-19T06:52:33.846Z,1018.84
2019-03-19T06:53:33.837Z,1018.85
2019-03-19T06:54:33.839Z,1018.85
2019-03-19T06:55:33.814Z,1018.80
2019-03-19T06:56:33.805Z,1018.90
2019-03-19T06:57:39.156Z,1018.82
2019-03-19T06:58:34.785Z,1018.86
2019-03-19T06:59:33.786Z,1018.91
2019-03-19T07:00:33.761Z,1018.85
2019-03-19T07:01:33.758Z,1018.87
2019-03-19T07:02:33.740Z,1018.87
2019-03-19T07:03:33.732Z,1018.87
2019-03-19T07:04:33.742Z,1018.91
2019-03-19T07:05:33.711Z,1018.93
2019-03-19T07:06:33.700Z,1018.98
2019-03-19T07:07:33.696Z,1018.99
2019-03-19T07:08:33.674Z,1018.94
2019-03-19T07:09:33.687Z,1018.97
2019-03-19T07:10:33.655Z,1018.98
2019-03-19T07:11:33.649Z,1018.97
2019-03-19T07:12:33.635Z,1018.97
2019-03-19T07:13:33.623Z,1018.96
2019-03-19T07:14:33.627Z,1019.03
2019-03-19T07:15:33.605Z,1019.04
2019-03-19T07:16:33.595Z,1019.09
2019-03-19T07:17:33.579Z,1019.08
2019-03-19T07:18:33.919Z,1019.05
2019-03-19T07:19:33.584Z,1019.10
2019-03-19T07:20:33.556Z,1019.09
2019-03-19T07:21:33.538Z,1019.14
2019-03-19T07:22:33.529Z,1019.10
2019-03-19T07:23:33.523Z,1019.13
2019-03-19T07:24:33.522Z,1019.09
2019-03-19T07:25:33.553Z,1019.09
2019-03-19T07:26:33.485Z,1019.11
2019-03-19T07:27:33.478Z,1019.11
2019-03-19T07:28:33.471Z,1019.14
2019-03-19T07:29:33.467Z,1019.20
2019-03-19T07:30:33.445Z,1019.23
2019-03-19T07:31:33.438Z,1019.23
2019-03-19T07:32:33.429Z,1019.22
2019-03-19T07:33:33.413Z,1019.24
2019-03-19T07:34:33.437Z,1019.26
2019-03-19T07:35:33.399Z,1019.22
2019-03-19T07:36:33.381Z,1019.29
2019-03-19T07:37:33.371Z,1019.25
2019-03-19T07:38:33.619Z,1019.22
2019-03-19T07:39:33.352Z,1019.25
2019-03-19T07:40:33.361Z,1019.28
2019-03-19T07:41:33.341Z,1019.26
2019-03-19T07:42:33.321Z,1019.27
2019-03-19T07:43:33.309Z,1019.31
2019-03-19T07:44:33.296Z,1019.31
2019-03-19T07:45:33.354Z,1019.34
2019-03-19T07:46:33.285Z,1019.31
2019-03-19T07:47:33.266Z,1019.36
2019-03-19T07:48:33.255Z,1019.44
2019-03-19T07:49:33.247Z,1019.42
2019-03-19T07:50:33.286Z,1019.45
2019-03-19T07:51:33.229Z,1019.50
2019-03-19T07:52:33.213Z,1019.47
2019-03-19T07:53:33.199Z,1019.53
2019-03-19T07:54:33.192Z,1019.56
2019-03-19T07:55:33.213Z,1019.57
2019-03-19T07:56:33.171Z,1019.53
2019-03-19T07:57:33.156Z,1019.61
2019-03-19T07:58:44.694Z,1019.63
2019-03-19T07:59:34.137Z,1019.60
2019-03-19T08:00:33.144Z,1019.66
2019-03-19T08:01:33.117Z,1019.65
2019-03-19T08:02:33.107Z,1019.63
2019-03-19T08:03:33.098Z,1019.64
2019-03-19T08:04:33.083Z,1019.63
2019-03-19T08:05:33.599Z,1019.72
2019-03-19T08:06:33.071Z,1019.69
2019-03-19T08:07:33.054Z,1019.75
2019-03-19T08:08:33.047Z,1019.70
2019-03-19T08:09:33.122Z,1019.69
2019-03-19T08:10:33.043Z,1019.70
2019-03-19T08:11:33.009Z,1019.77
2019-03-19T08:12:33.768Z,1019.74
2019-03-19T08:13:32.995Z,1019.75
2019-03-19T08:14:32.979Z,1019.81
2019-03-19T08:15:32.988Z,1019.79
2019-03-19T08:16:32.962Z,1019.80
2019-03-19T08:17:32.946Z,1019.78
2019-03-19T08:18:32.939Z,1019.79
2019-03-19T08:19:32.938Z,1019.79
2019-03-19T08:20:32.936Z,1019.83
2019-03-19T08:21:32.908Z,1019.85
2019-03-19T08:22:32.899Z,1019.85
2019-03-19T08:23:32.882Z,1019.88
2019-03-19T08:24:32.872Z,1019.86
2019-03-19T08:25:32.878Z,1019.93
2019-03-19T08:26:32.859Z,1019.91
2019-03-19T08:27:32.842Z,1019.96
2019-03-19T08:28:33.786Z,1019.95
2019-03-19T08:29:34.662Z,1019.92
2019-03-19T08:30:32.828Z,1019.99
2019-03-19T08:31:32.799Z,1019.96
2019-03-19T08:32:32.791Z,1019.90
2019-03-19T08:33:32.799Z,1020.03
2019-03-19T08:34:32.774Z,1019.96
2019-03-19T08:35:32.771Z,1019.99
2019-03-19T08:36:32.741Z,1020.08
2019-03-19T08:37:32.738Z,1020.03
2019-03-19T08:38:32.721Z,1020.09
2019-03-19T08:39:32.723Z,1020.10
2019-03-19T08:40:32.717Z,1020.01
2019-03-19T08:41:32.692Z,1020.11
2019-03-19T08:42:32.698Z,1020.05
2019-03-19T08:43:32.677Z,1020.04
2019-03-19T08:44:32.660Z,1019.99
2019-03-19T08:45:32.668Z,1020.06
2019-03-19T08:46:32.641Z,1019.99
2019-03-19T08:47:32.634Z,1020.04
2019-03-19T08:48:32.620Z,1020.09
2019-03-19T08:49:32.611Z,1020.02
2019-03-19T08:50:32.616Z,1020.08
2019-03-19T08:51:32.588Z,1020.04
2019-03-19T08:52:32.577Z,1020.02
2019-03-19T08:53:32.576Z,1020.05
2019-03-19T08:54:32.738Z,1019.99
2019-03-19T08:55:32.577Z,1019.96
2019-03-19T08:56:32.539Z,1019.93
2019-03-19T08:57:32.523Z,1019.95
2019-03-19T08:58:32.514Z,1020.01
2019-03-19T08:59:32.503Z,1020.06
2019-03-19T09:00:32.523Z,1019.92
2019-03-19T09:01:32.486Z,1019.99
2019-03-19T09:02:32.478Z,1019.92
2019-03-19T09:03:32.465Z,1019.98
2019-03-19T09:04:32.462Z,1019.98
2019-03-19T09:05:32.462Z,1020.06
2019-03-19T09:06:32.433Z,1020.06
2019-03-19T09:07:32.423Z,1020.06
2019-03-19T09:08:32.413Z,1020.09
2019-03-19T09:09:32.402Z,1020.08
2019-03-19T09:10:32.407Z,1019.99
2019-03-19T09:11:32.377Z,1020.10
2019-03-19T09:12:32.372Z,1020.10
2019-03-19T09:13:32.360Z,1020.07
2019-03-19T09:14:32.346Z,1020.11
2019-03-19T09:15:32.360Z,1020.06
2019-03-19T09:16:32.335Z,1020.09
2019-03-19T09:17:32.327Z,1020.14
2019-03-19T09:18:32.302Z,1020.04
2019-03-19T09:19:32.294Z,1020.07
2019-03-19T09:20:32.306Z,1020.08
2019-03-19T09:21:32.272Z,1020.13
2019-03-19T09:22:32.266Z,1020.11
2019-03-19T09:23:33.344Z,1020.18
2019-03-19T09:24:32.240Z,1020.22
2019-03-19T09:25:32.251Z,1020.15
2019-03-19T09:26:32.222Z,1020.20
2019-03-19T09:27:32.212Z,1020.19
2019-03-19T09:28:32.201Z,1020.22
2019-03-19T09:29:32.194Z,1020.20
2019-03-19T09:30:32.201Z,1020.13
2019-03-19T09:31:32.178Z,1020.18
2019-03-19T09:32:32.155Z,1020.26
2019-03-19T09:33:32.148Z,1020.22
2019-03-19T09:34:32.134Z,1020.22
2019-03-19T09:35:32.154Z,1020.22
2019-03-19T09:36:32.121Z,1020.16
2019-03-19T09:37:32.103Z,1020.21
2019-03-19T09:38:32.093Z,1020.19
2019-03-19T09:39:32.083Z,1020.20
2019-03-19T09:40:32.075Z,1020.22
2019-03-19T09:41:32.086Z,1020.12
2019-03-19T09:42:32.052Z,1020.19
2019-03-19T09:43:32.046Z,1020.24
2019-03-19T09:44:32.041Z,1020.22
2019-03-19T09:45:32.018Z,1020.24
2019-03-19T09:46:32.026Z,1020.26
2019-03-19T09:47:32.002Z,1020.30
2019-03-19T09:48:31.985Z,1020.22
2019-03-19T09:49:31.976Z,1020.28
2019-03-19T09:50:31.969Z,1020.31
2019-03-19T09:51:31.976Z,1020.27
2019-03-19T09:52:31.947Z,1020.26
2019-03-19T09:53:31.934Z,1020.32
2019-03-19T09:54:32.318Z,1020.43
2019-03-19T09:55:31.917Z,1020.38
2019-03-19T09:56:31.979Z,1020.38
2019-03-19T09:57:31.895Z,1020.36
2019-03-19T09:58:31.888Z,1020.39
2019-03-19T09:59:31.875Z,1020.37
2019-03-19T10:00:31.863Z,1020.38
2019-03-19T10:01:31.866Z,1020.40
2019-03-19T10:02:31.842Z,1020.39
2019-03-19T10:03:31.832Z,1020.39
2019-03-19T10:04:31.823Z,1020.38
2019-03-19T10:05:31.812Z,1020.34
2019-03-19T10:06:31.816Z,1020.38
2019-03-19T10:07:31.792Z,1020.36
2019-03-19T10:08:31.780Z,1020.34
2019-03-19T10:09:31.763Z,1020.39
2019-03-19T10:10:31.774Z,1020.46
2019-03-19T10:11:31.766Z,1020.46
2019-03-19T10:12:31.736Z,1020.39
2019-03-19T10:13:31.726Z,1020.43
2019-03-19T10:14:31.725Z,1020.50
2019-03-19T10:15:31.717Z,1020.48
2019-03-19T10:16:31.714Z,1020.54
2019-03-19T10:17:31.698Z,1020.53
2019-03-19T10:18:31.676Z,1020.54
2019-03-19T10:19:31.668Z,1020.51
2019-03-19T10:20:31.650Z,1020.57
2019-03-19T10:21:31.651Z,1020.49
2019-03-19T10:22:31.632Z,1020.56
2019-03-19T10:23:31.624Z,1020.57
2019-03-19T10:24:31.607Z,1020.49
2019-03-19T10:25:31.597Z,1020.47
2019-03-19T10:26:31.603Z,1020.57
2019-03-19T10:27:31.581Z,1020.58
2019-03-19T10:28:31.575Z,1020.59
2019-03-19T10:29:38.193Z,1020.60
2019-03-19T10:30:32.546Z,1020.68
2019-03-19T10:31:31.587Z,1020.78
2019-03-19T10:32:31.523Z,1020.74
2019-03-19T10:33:31.514Z,1020.74
2019-03-19T10:34:31.502Z,1020.72
2019-03-19T10:35:31.491Z,1020.72
2019-03-19T10:36:31.503Z,1020.80
2019-03-19T10:37:31.468Z,1020.75
2019-03-19T10:38:31.462Z,1020.75
2019-03-19T10:39:31.456Z,1020.76
2019-03-19T10:40:31.437Z,1020.69
2019-03-19T10:41:31.440Z,1020.64
2019-03-19T10:42:31.414Z,1020.62
2019-03-19T10:43:31.410Z,1020.63
2019-03-19T10:44:31.396Z,1020.62
2019-03-19T10:45:31.391Z,1020.64
2019-03-19T10:46:31.391Z,1020.66
2019-03-19T10:47:31.367Z,1020.67
2019-03-19T10:48:31.353Z,1020.62
2019-03-19T10:49:31.343Z,1020.53
2019-03-19T10:50:31.331Z,1020.55
2019-03-19T10:51:31.334Z,1020.56
2019-03-19T10:52:31.310Z,1020.59
2019-03-19T10:53:31.309Z,1020.68
2019-03-19T10:54:31.295Z,1020.66
2019-03-19T10:55:31.279Z,1020.67
2019-03-19T10:56:31.284Z,1020.63
2019-03-19T10:57:31.268Z,1020.61
2019-03-19T10:58:31.246Z,1020.63
2019-03-19T10:59:31.239Z,1020.57
2019-03-19T11:00:31.233Z,1020.53
2019-03-19T11:01:31.226Z,1020.55
2019-03-19T11:02:31.209Z,1020.53
2019-03-19T11:03:31.201Z,1020.58
2019-03-19T11:04:31.182Z,1020.62
2019-03-19T11:05:31.180Z,1020.59
2019-03-19T11:06:31.178Z,1020.62
2019-03-19T11:07:31.161Z,1020.57
2019-03-19T11:08:31.142Z,1020.66
2019-03-19T11:09:31.136Z,1020.54
2019-03-19T11:10:31.119Z,1020.58
2019-03-19T11:11:31.131Z,1020.56
2019-03-19T11:12:31.105Z,1020.65
2019-03-19T11:13:31.088Z,1020.64
2019-03-19T11:14:31.084Z,1020.69
2019-03-19T11:15:31.749Z,1020.73
2019-03-19T11:16:31.073Z,1020.69
2019-03-19T11:17:31.047Z,1020.72
2019-03-19T11:18:31.038Z,1020.74
2019-03-19T11:19:31.027Z,1020.74
2019-03-19T11:20:31.013Z,1020.79
2019-03-19T11:21:31.018Z,1020.76
2019-03-19T11:22:33.358Z,1020.85
2019-03-19T11:23:30.978Z,1020.81
2019-03-19T11:24:30.976Z,1020.85
2019-03-19T11:25:30.969Z,1020.90
2019-03-19T11:26:30.963Z,1020.88
2019-03-19T11:27:30.941Z,1020.88
2019-03-19T11:28:30.932Z,1020.86
2019-03-19T11:29:30.920Z,1020.84
2019-03-19T11:30:30.911Z,1020.85
2019-03-19T11:31:30.917Z,1020.85
2019-03-19T11:32:30.888Z,1020.92
2019-03-19T11:33:30.883Z,1020.87
2019-03-19T11:34:30.859Z,1020.91
2019-03-19T11:35:30.854Z,1020.89
2019-03-19T11:36:30.857Z,1020.91
2019-03-19T11:37:30.835Z,1020.89
2019-03-19T11:38:30.826Z,1020.92
2019-03-19T11:39:30.816Z,1020.86
2019-03-19T11:40:30.803Z,1020.90
2019-03-19T11:41:30.805Z,1020.87
2019-03-19T11:42:30.781Z,1020.88
2019-03-19T11:43:30.771Z,1020.88
2019-03-19T11:44:30.759Z,1020.85
2019-03-19T11:45:30.750Z,1020.83
2019-03-19T11:46:30.806Z,1020.82
2019-03-19T11:47:30.728Z,1020.81
2019-03-19T11:48:30.715Z,1020.83
2019-03-19T11:49:30.713Z,1020.82
2019-03-19T11:50:33.191Z,1020.83
2019-03-19T11:51:30.711Z,1020.80
2019-03-19T11:52:30.675Z,1020.82
2019-03-19T11:53:30.662Z,1020.83
2019-03-19T11:54:30.654Z,1020.83
2019-03-19T11:55:30.642Z,1020.83
2019-03-19T11:56:30.645Z,1020.85
2019-03-19T11:57:30.643Z,1020.80
2019-03-19T11:58:30.616Z,1020.77
2019-03-19T11:59:30.601Z,1020.78
2019-03-19T12:00:30.587Z,1020.81
2019-03-19T12:01:30.580Z,1020.81
2019-03-19T12:02:30.587Z,1020.78
2019-03-19T12:03:30.570Z,1020.91
2019-03-19T12:04:30.540Z,1020.79
2019-03-19T12:05:30.541Z,1020.81